Kahneeta, Oregon
Current Conditions -  °F | °C
As of 6:56 PM on Tuesday 25 Nov 2014 (Local Time) from KRDM Reporting Station
Clear Clear  
Wind Chill: 46°   Ceiling: Unl
Heat Index: 46°   Visibility: 10mi
Dew Point: 40°   Wind: 3mph
Humidity: 79%   Direction: 120°ESE
Pressure: 30.33"   Gusts: NA
Location:  44.7239°N, 121.498°W
Report Text: KRDM 260256Z 12003KT 10SM CLR 08/04 A3033 RMK AO2 SLP269 T00780044 53003
Loading
Personal Weather Stations






























Interactive Weather Map New forecast layout! Learn more

10-Day Weather Forecast

Advertisements
Track Severe Weather on mobile